Time;durP1;ratioP1;P1;durP2;ratioP2;P2;SDS_P1;SDS_P2;PMS_P1;PMS_P2;Temp;Humidity;BMP_temperature;BMP_pressure;BME280_temperature;BME280_humidity;BME280_pressure;Samples;Min_cycle;Max_cycle;Signal;HPM_P1;HPM_P2
2022/03/13 00:00:36;;;;;;;11.3;7.05;;;;;;;-0.05;32.9209;95102.34;;;;
2022/03/13 00:01:49;;;;;;;11.3;7.05;;;;;;;-0.05;32.9209;95102.34;;;;
2022/03/13 00:02:50;;;;;;;11.3;7.05;;;;;;;-0.05;32.9209;95102.34;;;;
2022/03/13 00:03:52;;;;;;;11.3;7.05;;;;;;;-0.05;32.9209;95102.34;;;;
2022/03/13 00:04:54;;;;;;;11.3;7.05;;;;;;;-0.05;32.9209;95102.34;;;;
2022/03/13 00:05:54;;;;;;;11.3;7.05;;;;;;;-0.05;32.9209;95102.34;;;;
2022/03/13 00:06:56;;;;;;;11.3;7.05;;;;;;;-0.05;32.9209;95102.34;;;;
2022/03/13 00:07:57;;;;;;;11.3;7.05;;;;;;;-0.05;32.9209;95102.34;;;;
2022/03/13 00:08:58;;;;;;;11.3;7.05;;;;;;;-0.05;32.9209;95102.34;;;;
2022/03/13 00:09:58;;;;;;;11.05;7.050001;;;;;;;-0.26;33.09473;95099.02;;;;
2022/03/13 00:10:59;;;;;;;11.05;7.050001;;;;;;;-0.26;33.09473;95099.02;;;;
2022/03/13 00:12:05;;;;;;;11.05;7.050001;;;;;;;-0.26;33.09473;95099.02;;;;
2022/03/13 00:13:14;;;;;;;11.05;7.050001;;;;;;;-0.26;33.09473;95099.02;;;;
2022/03/13 00:14:15;;;;;;;11.05;7.050001;;;;;;;-0.26;33.09473;95099.02;;;;
2022/03/13 00:15:16;;;;;;;11.05;7.050001;;;;;;;-0.26;33.09473;95099.02;;;;
2022/03/13 00:16:24;;;;;;;11.05;7.050001;;;;;;;-0.26;33.09473;95099.02;;;;
2022/03/13 00:17:29;;;;;;;11.05;7.050001;;;;;;;-0.26;33.09473;95099.02;;;;
2022/03/13 00:18:32;;;;;;;11.05;7.050001;;;;;;;-0.26;33.09473;95099.02;;;;
2022/03/13 00:19:33;;;;;;;11.05;7.050001;;;;;;;-0.26;33.09473;95099.02;;;;
2022/03/13 00:20:34;;;;;;;11.05;7.050001;;;;;;;-0.26;33.09473;95099.02;;;;
2022/03/13 00:21:35;;;;;;;11;6.65;;;;;;;-0.36;33.29785;95099.3;;;;
2022/03/13 00:22:35;;;;;;;11;6.65;;;;;;;-0.36;33.29785;95099.3;;;;
2022/03/13 00:23:37;;;;;;;11;6.65;;;;;;;-0.36;33.29785;95099.3;;;;
2022/03/13 00:24:38;;;;;;;11;6.65;;;;;;;-0.36;33.29785;95099.3;;;;
2022/03/13 00:25:39;;;;;;;11;6.65;;;;;;;-0.36;33.29785;95099.3;;;;
2022/03/13 00:26:40;;;;;;;11;6.65;;;;;;;-0.36;33.29785;95099.3;;;;
2022/03/13 00:27:40;;;;;;;11;6.65;;;;;;;-0.36;33.29785;95099.3;;;;
2022/03/13 00:28:41;;;;;;;11;6.65;;;;;;;-0.36;33.29785;95099.3;;;;
2022/03/13 00:29:42;;;;;;;11;6.65;;;;;;;-0.36;33.29785;95099.3;;;;
2022/03/13 00:30:42;;;;;;;11;6.65;;;;;;;-0.36;33.29785;95099.3;;;;
2022/03/13 00:31:43;;;;;;;10.5;6.599999;;;;;;;-0.4;33.39941;95088.31;;;;
2022/03/13 00:32:43;;;;;;;10.5;6.599999;;;;;;;-0.4;33.39941;95088.31;;;;
2022/03/13 00:33:44;;;;;;;10.5;6.599999;;;;;;;-0.4;33.39941;95088.31;;;;
2022/03/13 00:34:44;;;;;;;10.5;6.599999;;;;;;;-0.4;33.39941;95088.31;;;;
2022/03/13 00:35:45;;;;;;;10.5;6.599999;;;;;;;-0.4;33.39941;95088.31;;;;
2022/03/13 00:36:46;;;;;;;10.5;6.599999;;;;;;;-0.4;33.39941;95088.31;;;;
2022/03/13 00:37:47;;;;;;;10.5;6.599999;;;;;;;-0.4;33.39941;95088.31;;;;
2022/03/13 00:38:47;;;;;;;10.5;6.599999;;;;;;;-0.4;33.39941;95088.31;;;;
2022/03/13 00:39:50;;;;;;;10.5;6.599999;;;;;;;-0.4;33.39941;95088.31;;;;
2022/03/13 00:40:51;;;;;;;10.5;6.599999;;;;;;;-0.4;33.39941;95088.31;;;;
2022/03/13 00:41:52;;;;;;;10.5;6.599999;;;;;;;-0.4;33.39941;95088.31;;;;
2022/03/13 00:42:53;;;;;;;10.2;6.550001;;;;;;;-0.49;33.4668;95090.19;;;;
2022/03/13 00:43:53;;;;;;;10.2;6.550001;;;;;;;-0.49;33.4668;95090.19;;;;
2022/03/13 00:44:55;;;;;;;10.2;6.550001;;;;;;;-0.49;33.4668;95090.19;;;;
2022/03/13 00:45:56;;;;;;;10.2;6.550001;;;;;;;-0.49;33.4668;95090.19;;;;
2022/03/13 00:46:57;;;;;;;10.2;6.550001;;;;;;;-0.49;33.4668;95090.19;;;;
2022/03/13 00:47:58;;;;;;;10.2;6.550001;;;;;;;-0.49;33.4668;95090.19;;;;
2022/03/13 00:48:59;;;;;;;10.2;6.550001;;;;;;;-0.49;33.4668;95090.19;;;;
2022/03/13 00:49:59;;;;;;;10.2;6.550001;;;;;;;-0.49;33.4668;95090.19;;;;
2022/03/13 00:51:00;;;;;;;10.2;6.550001;;;;;;;-0.49;33.4668;95090.19;;;;
2022/03/13 00:52:01;;;;;;;10.2;6.550001;;;;;;;-0.49;33.4668;95090.19;;;;
2022/03/13 00:53:05;;;;;;;11.3;6.75;;;;;;;-0.64;33.61328;95080.89;;;;
2022/03/13 00:54:05;;;;;;;11.3;6.75;;;;;;;-0.64;33.61328;95080.89;;;;
2022/03/13 00:55:07;;;;;;;11.3;6.75;;;;;;;-0.64;33.61328;95080.89;;;;
2022/03/13 00:56:08;;;;;;;11.3;6.75;;;;;;;-0.64;33.61328;95080.89;;;;
2022/03/13 00:57:08;;;;;;;11.3;6.75;;;;;;;-0.64;33.61328;95080.89;;;;
2022/03/13 00:58:09;;;;;;;11.3;6.75;;;;;;;-0.64;33.61328;95080.89;;;;
2022/03/13 00:59:10;;;;;;;11.3;6.75;;;;;;;-0.64;33.61328;95080.89;;;;
2022/03/13 01:00:11;;;;;;;11.3;6.75;;;;;;;-0.64;33.61328;95080.89;;;;
2022/03/13 01:01:12;;;;;;;11.3;6.75;;;;;;;-0.64;33.61328;95080.89;;;;
2022/03/13 01:02:13;;;;;;;11.3;6.75;;;;;;;-0.64;33.61328;95080.89;;;;
2022/03/13 01:03:13;;;;;;;11.3;6.75;;;;;;;-0.64;33.61328;95080.89;;;;
2022/03/13 01:04:28;;;;;;;12.45;7.050002;;;;;;;-0.78;33.77051;95070.11;;;;
2022/03/13 01:05:29;;;;;;;12.45;7.050002;;;;;;;-0.78;33.77051;95070.11;;;;
2022/03/13 01:06:29;;;;;;;12.45;7.050002;;;;;;;-0.78;33.77051;95070.11;;;;
2022/03/13 01:07:30;;;;;;;12.45;7.050002;;;;;;;-0.78;33.77051;95070.11;;;;
2022/03/13 01:08:30;;;;;;;12.45;7.050002;;;;;;;-0.78;33.77051;95070.11;;;;
2022/03/13 01:09:31;;;;;;;12.45;7.050002;;;;;;;-0.78;33.77051;95070.11;;;;
2022/03/13 01:10:32;;;;;;;12.45;7.050002;;;;;;;-0.78;33.77051;95070.11;;;;
2022/03/13 01:11:32;;;;;;;12.45;7.050002;;;;;;;-0.78;33.77051;95070.11;;;;
2022/03/13 01:12:33;;;;;;;12.45;7.050002;;;;;;;-0.78;33.77051;95070.11;;;;
2022/03/13 01:13:35;;;;;;;12.45;7.050002;;;;;;;-0.78;33.77051;95070.11;;;;
2022/03/13 01:14:36;;;;;;;11;7.1;;;;;;;-1.02;33.96191;95063.16;;;;
2022/03/13 01:15:38;;;;;;;11;7.1;;;;;;;-1.02;33.96191;95063.16;;;;
2022/03/13 01:16:39;;;;;;;11;7.1;;;;;;;-1.02;33.96191;95063.16;;;;
2022/03/13 01:17:41;;;;;;;11;7.1;;;;;;;-1.02;33.96191;95063.16;;;;
2022/03/13 01:18:42;;;;;;;11;7.1;;;;;;;-1.02;33.96191;95063.16;;;;
2022/03/13 01:19:45;;;;;;;11;7.1;;;;;;;-1.02;33.96191;95063.16;;;;
2022/03/13 01:20:45;;;;;;;11;7.1;;;;;;;-1.02;33.96191;95063.16;;;;
2022/03/13 01:21:47;;;;;;;11;7.1;;;;;;;-1.02;33.96191;95063.16;;;;
2022/03/13 01:22:48;;;;;;;11;7.1;;;;;;;-1.02;33.96191;95063.16;;;;
2022/03/13 01:23:48;;;;;;;11;7.1;;;;;;;-1.02;33.96191;95063.16;;;;
2022/03/13 01:25:16;;;;;;;12.05;7.349999;;;;;;;-1.16;34.14063;95045.26;;;;
2022/03/13 01:26:18;;;;;;;12.05;7.349999;;;;;;;-1.16;34.14063;95045.26;;;;
2022/03/13 01:27:37;;;;;;;12.05;7.349999;;;;;;;-1.16;34.14063;95045.26;;;;
2022/03/13 01:28:37;;;;;;;12.05;7.349999;;;;;;;-1.16;34.14063;95045.26;;;;
2022/03/13 01:29:38;;;;;;;12.05;7.349999;;;;;;;-1.16;34.14063;95045.26;;;;
2022/03/13 01:30:39;;;;;;;12.05;7.349999;;;;;;;-1.16;34.14063;95045.26;;;;
2022/03/13 01:31:39;;;;;;;12.05;7.349999;;;;;;;-1.16;34.14063;95045.26;;;;
2022/03/13 01:32:48;;;;;;;12.05;7.349999;;;;;;;-1.16;34.14063;95045.26;;;;
2022/03/13 01:33:52;;;;;;;12.05;7.349999;;;;;;;-1.16;34.14063;95045.26;;;;
2022/03/13 01:34:54;;;;;;;12.05;7.349999;;;;;;;-1.16;34.14063;95045.26;;;;
2022/03/13 01:35:54;;;;;;;12.1;7.150001;;;;;;;-1.21;34.31641;95033.51;;;;
2022/03/13 01:36:55;;;;;;;12.1;7.150001;;;;;;;-1.21;34.31641;95033.51;;;;
2022/03/13 01:37:57;;;;;;;12.1;7.150001;;;;;;;-1.21;34.31641;95033.51;;;;
2022/03/13 01:38:58;;;;;;;12.1;7.150001;;;;;;;-1.21;34.31641;95033.51;;;;
2022/03/13 01:40:00;;;;;;;12.1;7.150001;;;;;;;-1.21;34.31641;95033.51;;;;
2022/03/13 01:41:04;;;;;;;12.1;7.150001;;;;;;;-1.21;34.31641;95033.51;;;;
2022/03/13 01:42:05;;;;;;;12.1;7.150001;;;;;;;-1.21;34.31641;95033.51;;;;
2022/03/13 01:43:06;;;;;;;12.1;7.150001;;;;;;;-1.21;34.31641;95033.51;;;;
2022/03/13 01:44:06;;;;;;;12.1;7.150001;;;;;;;-1.21;34.31641;95033.51;;;;
2022/03/13 01:45:07;;;;;;;12.1;7.150001;;;;;;;-1.21;34.31641;95033.51;;;;
2022/03/13 01:46:11;;;;;;;12.1;7.150001;;;;;;;-1.21;34.31641;95033.51;;;;
2022/03/13 01:47:11;;;;;;;12.1;7.150001;;;;;;;-1.21;34.31641;95033.51;;;;
2022/03/13 01:48:13;;;;;;;12.1;7.150001;;;;;;;-1.21;34.31641;95033.51;;;;
2022/03/13 01:49:13;;;;;;;12.1;7.150001;;;;;;;-1.21;34.31641;95033.51;;;;
2022/03/13 01:50:14;;;;;;;12.1;7.150001;;;;;;;-1.21;34.31641;95033.51;;;;
2022/03/13 01:51:15;;;;;;;12.1;7.150001;;;;;;;-1.21;34.31641;95033.51;;;;
2022/03/13 01:52:16;;;;;;;12.1;7.150001;;;;;;;-1.21;34.31641;95033.51;;;;
2022/03/13 01:53:23;;;;;;;12.1;7.150001;;;;;;;-1.21;34.31641;95033.51;;;;
2022/03/13 01:54:24;;;;;;;12.1;7.150001;;;;;;;-1.21;34.31641;95033.51;;;;
2022/03/13 01:55:25;;;;;;;12.1;7.150001;;;;;;;-1.21;34.31641;95033.51;;;;
2022/03/13 01:56:25;;;;;;;12.1;7.150001;;;;;;;-1.21;34.31641;95033.51;;;;
2022/03/13 01:57:26;;;;;;;12.8;7.200001;;;;;;;-1.29;34.67773;95038.83;;;;
2022/03/13 01:58:27;;;;;;;12.8;7.200001;;;;;;;-1.29;34.67773;95038.83;;;;
2022/03/13 01:59:28;;;;;;;12.8;7.200001;;;;;;;-1.29;34.67773;95038.83;;;;
2022/03/13 02:00:29;;;;;;;12.8;7.200001;;;;;;;-1.29;34.67773;95038.83;;;;
2022/03/13 02:01:29;;;;;;;12.8;7.200001;;;;;;;-1.29;34.67773;95038.83;;;;
2022/03/13 02:02:30;;;;;;;12.8;7.200001;;;;;;;-1.29;34.67773;95038.83;;;;
2022/03/13 02:03:33;;;;;;;12.8;7.200001;;;;;;;-1.29;34.67773;95038.83;;;;
2022/03/13 02:04:34;;;;;;;12.8;7.200001;;;;;;;-1.29;34.67773;95038.83;;;;
2022/03/13 02:05:34;;;;;;;12.8;7.200001;;;;;;;-1.29;34.67773;95038.83;;;;
2022/03/13 02:06:35;;;;;;;12.8;7.200001;;;;;;;-1.29;34.67773;95038.83;;;;
2022/03/13 02:07:36;;;;;;;12.3;7.200001;;;;;;;-1.4;34.76367;95033.4;;;;
2022/03/13 02:08:37;;;;;;;12.3;7.200001;;;;;;;-1.4;34.76367;95033.4;;;;
2022/03/13 02:09:38;;;;;;;12.3;7.200001;;;;;;;-1.4;34.76367;95033.4;;;;
2022/03/13 02:10:38;;;;;;;12.3;7.200001;;;;;;;-1.4;34.76367;95033.4;;;;
2022/03/13 02:11:40;;;;;;;12.3;7.200001;;;;;;;-1.4;34.76367;95033.4;;;;
2022/03/13 02:12:41;;;;;;;12.3;7.200001;;;;;;;-1.4;34.76367;95033.4;;;;
2022/03/13 02:13:41;;;;;;;12.3;7.200001;;;;;;;-1.4;34.76367;95033.4;;;;
2022/03/13 02:14:43;;;;;;;12.3;7.200001;;;;;;;-1.4;34.76367;95033.4;;;;
2022/03/13 02:15:44;;;;;;;12.3;7.200001;;;;;;;-1.4;34.76367;95033.4;;;;
2022/03/13 02:16:44;;;;;;;12.3;7.200001;;;;;;;-1.4;34.76367;95033.4;;;;
2022/03/13 02:17:45;;;;;;;12.3;7.200001;;;;;;;-1.4;34.76367;95033.4;;;;
2022/03/13 02:18:45;;;;;;;12.8;6.849999;;;;;;;-1.57;34.94922;95037.09;;;;
2022/03/13 02:19:49;;;;;;;12.8;6.849999;;;;;;;-1.57;34.94922;95037.09;;;;
2022/03/13 02:20:49;;;;;;;12.8;6.849999;;;;;;;-1.57;34.94922;95037.09;;;;
2022/03/13 02:21:51;;;;;;;12.8;6.849999;;;;;;;-1.57;34.94922;95037.09;;;;
2022/03/13 02:22:52;;;;;;;12.8;6.849999;;;;;;;-1.57;34.94922;95037.09;;;;
2022/03/13 02:23:53;;;;;;;12.8;6.849999;;;;;;;-1.57;34.94922;95037.09;;;;
2022/03/13 02:24:55;;;;;;;12.8;6.849999;;;;;;;-1.57;34.94922;95037.09;;;;
2022/03/13 02:25:56;;;;;;;12.8;6.849999;;;;;;;-1.57;34.94922;95037.09;;;;
2022/03/13 02:26:58;;;;;;;12.8;6.849999;;;;;;;-1.57;34.94922;95037.09;;;;
2022/03/13 02:28:01;;;;;;;12.8;6.849999;;;;;;;-1.57;34.94922;95037.09;;;;
2022/03/13 02:29:01;;;;;;;10.7;7.000001;;;;;;;-1.71;35.14844;95040.01;;;;
2022/03/13 02:30:03;;;;;;;10.7;7.000001;;;;;;;-1.71;35.14844;95040.01;;;;
2022/03/13 02:31:07;;;;;;;10.7;7.000001;;;;;;;-1.71;35.14844;95040.01;;;;
2022/03/13 02:32:13;;;;;;;10.7;7.000001;;;;;;;-1.71;35.14844;95040.01;;;;
2022/03/13 02:33:13;;;;;;;10.7;7.000001;;;;;;;-1.71;35.14844;95040.01;;;;
2022/03/13 02:34:17;;;;;;;10.7;7.000001;;;;;;;-1.71;35.14844;95040.01;;;;
2022/03/13 02:35:19;;;;;;;10.7;7.000001;;;;;;;-1.71;35.14844;95040.01;;;;
2022/03/13 02:36:20;;;;;;;10.7;7.000001;;;;;;;-1.71;35.14844;95040.01;;;;
2022/03/13 02:37:29;;;;;;;10.7;7.000001;;;;;;;-1.71;35.14844;95040.01;;;;
2022/03/13 02:38:37;;;;;;;10.7;7.000001;;;;;;;-1.71;35.14844;95040.01;;;;
2022/03/13 02:39:38;;;;;;;12.1;7.599999;;;;;;;-1.8;35.33008;95027.78;;;;
2022/03/13 02:40:39;;;;;;;12.1;7.599999;;;;;;;-1.8;35.33008;95027.78;;;;
2022/03/13 02:41:40;;;;;;;12.1;7.599999;;;;;;;-1.8;35.33008;95027.78;;;;
2022/03/13 02:42:42;;;;;;;12.1;7.599999;;;;;;;-1.8;35.33008;95027.78;;;;
2022/03/13 02:43:42;;;;;;;12.1;7.599999;;;;;;;-1.8;35.33008;95027.78;;;;
2022/03/13 02:44:43;;;;;;;12.1;7.599999;;;;;;;-1.8;35.33008;95027.78;;;;
2022/03/13 02:45:43;;;;;;;12.1;7.599999;;;;;;;-1.8;35.33008;95027.78;;;;
2022/03/13 02:46:44;;;;;;;12.1;7.599999;;;;;;;-1.8;35.33008;95027.78;;;;
2022/03/13 02:47:56;;;;;;;12.1;7.599999;;;;;;;-1.8;35.33008;95027.78;;;;
2022/03/13 02:48:57;;;;;;;12.1;7.599999;;;;;;;-1.8;35.33008;95027.78;;;;
2022/03/13 02:49:57;;;;;;;12.1;7.599999;;;;;;;-1.8;35.33008;95027.78;;;;
2022/03/13 02:50:58;;;;;;;10.6;6.799999;;;;;;;-1.84;35.48438;95037.87;;;;
2022/03/13 02:51:58;;;;;;;10.6;6.799999;;;;;;;-1.84;35.48438;95037.87;;;;
2022/03/13 02:53:02;;;;;;;10.6;6.799999;;;;;;;-1.84;35.48438;95037.87;;;;
2022/03/13 02:54:04;;;;;;;10.6;6.799999;;;;;;;-1.84;35.48438;95037.87;;;;
2022/03/13 02:55:04;;;;;;;10.6;6.799999;;;;;;;-1.84;35.48438;95037.87;;;;
2022/03/13 02:56:06;;;;;;;10.6;6.799999;;;;;;;-1.84;35.48438;95037.87;;;;
2022/03/13 02:57:07;;;;;;;10.6;6.799999;;;;;;;-1.84;35.48438;95037.87;;;;
2022/03/13 02:58:08;;;;;;;10.6;6.799999;;;;;;;-1.84;35.48438;95037.87;;;;
2022/03/13 02:59:10;;;;;;;10.6;6.799999;;;;;;;-1.84;35.48438;95037.87;;;;
2022/03/13 03:00:10;;;;;;;10.6;6.799999;;;;;;;-1.84;35.48438;95037.87;;;;
2022/03/13 03:01:12;;;;;;;10.85;6.85;;;;;;;-1.82;35.62305;95049.1;;;;
2022/03/13 03:02:13;;;;;;;10.85;6.85;;;;;;;-1.82;35.62305;95049.1;;;;
2022/03/13 03:03:13;;;;;;;10.85;6.85;;;;;;;-1.82;35.62305;95049.1;;;;
2022/03/13 03:04:15;;;;;;;10.85;6.85;;;;;;;-1.82;35.62305;95049.1;;;;
2022/03/13 03:05:16;;;;;;;10.85;6.85;;;;;;;-1.82;35.62305;95049.1;;;;
2022/03/13 03:06:17;;;;;;;10.85;6.85;;;;;;;-1.82;35.62305;95049.1;;;;
2022/03/13 03:07:17;;;;;;;10.85;6.85;;;;;;;-1.82;35.62305;95049.1;;;;
2022/03/13 03:08:19;;;;;;;10.85;6.85;;;;;;;-1.82;35.62305;95049.1;;;;
2022/03/13 03:09:20;;;;;;;10.85;6.85;;;;;;;-1.82;35.62305;95049.1;;;;
2022/03/13 03:10:20;;;;;;;10.85;6.85;;;;;;;-1.82;35.62305;95049.1;;;;
2022/03/13 03:11:21;;;;;;;10.85;6.85;;;;;;;-1.82;35.62305;95049.1;;;;
2022/03/13 03:12:22;;;;;;;14.65;7;;;;;;;-1.84;35.69531;95053.34;;;;
2022/03/13 03:13:22;;;;;;;14.65;7;;;;;;;-1.84;35.69531;95053.34;;;;
2022/03/13 03:14:23;;;;;;;14.65;7;;;;;;;-1.84;35.69531;95053.34;;;;
2022/03/13 03:15:26;;;;;;;14.65;7;;;;;;;-1.84;35.69531;95053.34;;;;
2022/03/13 03:16:26;;;;;;;14.65;7;;;;;;;-1.84;35.69531;95053.34;;;;
2022/03/13 03:17:27;;;;;;;14.65;7;;;;;;;-1.84;35.69531;95053.34;;;;
2022/03/13 03:18:28;;;;;;;14.65;7;;;;;;;-1.84;35.69531;95053.34;;;;
2022/03/13 03:19:28;;;;;;;14.65;7;;;;;;;-1.84;35.69531;95053.34;;;;
2022/03/13 03:20:29;;;;;;;14.65;7;;;;;;;-1.84;35.69531;95053.34;;;;
2022/03/13 03:21:30;;;;;;;14.65;7;;;;;;;-1.84;35.69531;95053.34;;;;
2022/03/13 03:22:30;;;;;;;10.15;6.8;;;;;;;-1.89;35.83691;95046.89;;;;
2022/03/13 03:23:31;;;;;;;10.15;6.8;;;;;;;-1.89;35.83691;95046.89;;;;
2022/03/13 03:24:32;;;;;;;10.15;6.8;;;;;;;-1.89;35.83691;95046.89;;;;
2022/03/13 03:25:33;;;;;;;10.15;6.8;;;;;;;-1.89;35.83691;95046.89;;;;
2022/03/13 03:26:33;;;;;;;10.15;6.8;;;;;;;-1.89;35.83691;95046.89;;;;
2022/03/13 03:27:33;;;;;;;10.15;6.8;;;;;;;-1.89;35.83691;95046.89;;;;
2022/03/13 03:28:34;;;;;;;10.15;6.8;;;;;;;-1.89;35.83691;95046.89;;;;
2022/03/13 03:29:35;;;;;;;10.15;6.8;;;;;;;-1.89;35.83691;95046.89;;;;
2022/03/13 03:30:36;;;;;;;10.15;6.8;;;;;;;-1.89;35.83691;95046.89;;;;
2022/03/13 03:31:37;;;;;;;10.15;6.8;;;;;;;-1.89;35.83691;95046.89;;;;
2022/03/13 03:32:40;;;;;;;10.15;6.8;;;;;;;-1.89;35.83691;95046.89;;;;
2022/03/13 03:33:41;;;;;;;11.35;7.15;;;;;;;-1.97;35.97852;95044.16;;;;
2022/03/13 03:34:42;;;;;;;11.35;7.15;;;;;;;-1.97;35.97852;95044.16;;;;
2022/03/13 03:35:43;;;;;;;11.35;7.15;;;;;;;-1.97;35.97852;95044.16;;;;
2022/03/13 03:36:43;;;;;;;11.35;7.15;;;;;;;-1.97;35.97852;95044.16;;;;
2022/03/13 03:37:51;;;;;;;11.35;7.15;;;;;;;-1.97;35.97852;95044.16;;;;
2022/03/13 03:38:54;;;;;;;11.35;7.15;;;;;;;-1.97;35.97852;95044.16;;;;
2022/03/13 03:39:54;;;;;;;11.35;7.15;;;;;;;-1.97;35.97852;95044.16;;;;
2022/03/13 03:40:55;;;;;;;11.35;7.15;;;;;;;-1.97;35.97852;95044.16;;;;
2022/03/13 03:41:55;;;;;;;11.35;7.15;;;;;;;-1.97;35.97852;95044.16;;;;
2022/03/13 03:42:56;;;;;;;11.35;7.15;;;;;;;-1.97;35.97852;95044.16;;;;
2022/03/13 03:43:58;;;;;;;14.45;7.25;;;;;;;-2.12;36.14355;95044.58;;;;
2022/03/13 03:44:58;;;;;;;14.45;7.25;;;;;;;-2.12;36.14355;95044.58;;;;
2022/03/13 03:45:59;;;;;;;14.45;7.25;;;;;;;-2.12;36.14355;95044.58;;;;
2022/03/13 03:46:59;;;;;;;14.45;7.25;;;;;;;-2.12;36.14355;95044.58;;;;
2022/03/13 03:48:00;;;;;;;14.45;7.25;;;;;;;-2.12;36.14355;95044.58;;;;
2022/03/13 03:49:01;;;;;;;14.45;7.25;;;;;;;-2.12;36.14355;95044.58;;;;
2022/03/13 03:50:02;;;;;;;14.45;7.25;;;;;;;-2.12;36.14355;95044.58;;;;
2022/03/13 03:51:03;;;;;;;14.45;7.25;;;;;;;-2.12;36.14355;95044.58;;;;
2022/03/13 03:52:04;;;;;;;14.45;7.25;;;;;;;-2.12;36.14355;95044.58;;;;
2022/03/13 03:53:05;;;;;;;14.45;7.25;;;;;;;-2.12;36.14355;95044.58;;;;
2022/03/13 03:54:06;;;;;;;10.05;7.1;;;;;;;-2.28;36.40332;95043.16;;;;
2022/03/13 03:55:08;;;;;;;10.05;7.1;;;;;;;-2.28;36.40332;95043.16;;;;
2022/03/13 03:56:09;;;;;;;10.05;7.1;;;;;;;-2.28;36.40332;95043.16;;;;
2022/03/13 03:57:09;;;;;;;10.05;7.1;;;;;;;-2.28;36.40332;95043.16;;;;
2022/03/13 03:58:10;;;;;;;10.05;7.1;;;;;;;-2.28;36.40332;95043.16;;;;
2022/03/13 03:59:10;;;;;;;10.05;7.1;;;;;;;-2.28;36.40332;95043.16;;;;
2022/03/13 04:00:11;;;;;;;10.05;7.1;;;;;;;-2.28;36.40332;95043.16;;;;
2022/03/13 04:01:13;;;;;;;10.05;7.1;;;;;;;-2.28;36.40332;95043.16;;;;
2022/03/13 04:02:14;;;;;;;10.05;7.1;;;;;;;-2.28;36.40332;95043.16;;;;
2022/03/13 04:03:14;;;;;;;10.05;7.1;;;;;;;-2.28;36.40332;95043.16;;;;
2022/03/13 04:04:15;;;;;;;10.05;7.1;;;;;;;-2.28;36.40332;95043.16;;;;
2022/03/13 04:05:16;;;;;;;12;7.15;;;;;;;-2.29;36.56055;95055.15;;;;
2022/03/13 04:06:17;;;;;;;12;7.15;;;;;;;-2.29;36.56055;95055.15;;;;
2022/03/13 04:07:18;;;;;;;12;7.15;;;;;;;-2.29;36.56055;95055.15;;;;
2022/03/13 04:08:18;;;;;;;12;7.15;;;;;;;-2.29;36.56055;95055.15;;;;
2022/03/13 04:09:19;;;;;;;12;7.15;;;;;;;-2.29;36.56055;95055.15;;;;
2022/03/13 04:10:20;;;;;;;12;7.15;;;;;;;-2.29;36.56055;95055.15;;;;
2022/03/13 04:11:20;;;;;;;12;7.15;;;;;;;-2.29;36.56055;95055.15;;;;
2022/03/13 04:12:21;;;;;;;12;7.15;;;;;;;-2.29;36.56055;95055.15;;;;
2022/03/13 04:13:21;;;;;;;12;7.15;;;;;;;-2.29;36.56055;95055.15;;;;
2022/03/13 04:14:22;;;;;;;12;7.15;;;;;;;-2.29;36.56055;95055.15;;;;
2022/03/13 04:15:23;;;;;;;10.5;6.849999;;;;;;;-2.36;36.71094;95065.63;;;;
2022/03/13 04:16:24;;;;;;;10.5;6.849999;;;;;;;-2.36;36.71094;95065.63;;;;
2022/03/13 04:17:24;;;;;;;10.5;6.849999;;;;;;;-2.36;36.71094;95065.63;;;;
2022/03/13 04:18:25;;;;;;;10.5;6.849999;;;;;;;-2.36;36.71094;95065.63;;;;
2022/03/13 04:19:27;;;;;;;10.5;6.849999;;;;;;;-2.36;36.71094;95065.63;;;;
2022/03/13 04:20:28;;;;;;;10.5;6.849999;;;;;;;-2.36;36.71094;95065.63;;;;
2022/03/13 04:21:29;;;;;;;10.5;6.849999;;;;;;;-2.36;36.71094;95065.63;;;;
2022/03/13 04:22:29;;;;;;;10.5;6.849999;;;;;;;-2.36;36.71094;95065.63;;;;
2022/03/13 04:23:30;;;;;;;10.5;6.849999;;;;;;;-2.36;36.71094;95065.63;;;;
2022/03/13 04:24:32;;;;;;;10.5;6.849999;;;;;;;-2.36;36.71094;95065.63;;;;
2022/03/13 04:25:33;;;;;;;10.5;6.849999;;;;;;;-2.36;36.71094;95065.63;;;;
2022/03/13 04:26:34;;;;;;;12.3;7.05;;;;;;;-2.52;36.91699;95070.47;;;;
2022/03/13 04:27:35;;;;;;;12.3;7.05;;;;;;;-2.52;36.91699;95070.47;;;;
2022/03/13 04:28:36;;;;;;;12.3;7.05;;;;;;;-2.52;36.91699;95070.47;;;;
2022/03/13 04:29:37;;;;;;;12.3;7.05;;;;;;;-2.52;36.91699;95070.47;;;;
2022/03/13 04:30:39;;;;;;;12.3;7.05;;;;;;;-2.52;36.91699;95070.47;;;;
2022/03/13 04:31:40;;;;;;;12.3;7.05;;;;;;;-2.52;36.91699;95070.47;;;;
2022/03/13 04:32:42;;;;;;;12.3;7.05;;;;;;;-2.52;36.91699;95070.47;;;;
2022/03/13 04:33:42;;;;;;;12.3;7.05;;;;;;;-2.52;36.91699;95070.47;;;;
2022/03/13 04:34:43;;;;;;;12.3;7.05;;;;;;;-2.52;36.91699;95070.47;;;;
2022/03/13 04:35:43;;;;;;;12.3;7.05;;;;;;;-2.52;36.91699;95070.47;;;;
2022/03/13 04:36:44;;;;;;;12.5;7.349999;;;;;;;-2.63;37.15918;95082.65;;;;
2022/03/13 04:37:45;;;;;;;12.5;7.349999;;;;;;;-2.63;37.15918;95082.65;;;;
2022/03/13 04:38:45;;;;;;;12.5;7.349999;;;;;;;-2.63;37.15918;95082.65;;;;
2022/03/13 04:39:50;;;;;;;12.5;7.349999;;;;;;;-2.63;37.15918;95082.65;;;;
2022/03/13 04:40:52;;;;;;;12.5;7.349999;;;;;;;-2.63;37.15918;95082.65;;;;
2022/03/13 04:41:54;;;;;;;12.5;7.349999;;;;;;;-2.63;37.15918;95082.65;;;;
2022/03/13 04:42:55;;;;;;;12.5;7.349999;;;;;;;-2.63;37.15918;95082.65;;;;
2022/03/13 04:43:55;;;;;;;12.5;7.349999;;;;;;;-2.63;37.15918;95082.65;;;;
2022/03/13 04:44:56;;;;;;;12.5;7.349999;;;;;;;-2.63;37.15918;95082.65;;;;
2022/03/13 04:45:56;;;;;;;12.5;7.349999;;;;;;;-2.63;37.15918;95082.65;;;;
2022/03/13 04:46:57;;;;;;;12.5;7.349999;;;;;;;-2.63;37.15918;95082.65;;;;
2022/03/13 04:47:57;;;;;;;12.05;7.099999;;;;;;;-2.66;37.2832;95083.8;;;;
2022/03/13 04:48:58;;;;;;;12.05;7.099999;;;;;;;-2.66;37.2832;95083.8;;;;
2022/03/13 04:49:59;;;;;;;12.05;7.099999;;;;;;;-2.66;37.2832;95083.8;;;;
2022/03/13 04:51:00;;;;;;;12.05;7.099999;;;;;;;-2.66;37.2832;95083.8;;;;
2022/03/13 04:52:02;;;;;;;12.05;7.099999;;;;;;;-2.66;37.2832;95083.8;;;;
2022/03/13 04:53:03;;;;;;;12.05;7.099999;;;;;;;-2.66;37.2832;95083.8;;;;
2022/03/13 04:54:03;;;;;;;12.05;7.099999;;;;;;;-2.66;37.2832;95083.8;;;;
2022/03/13 04:55:05;;;;;;;12.05;7.099999;;;;;;;-2.66;37.2832;95083.8;;;;
2022/03/13 04:56:06;;;;;;;12.05;7.099999;;;;;;;-2.66;37.2832;95083.8;;;;
2022/03/13 04:57:07;;;;;;;12.05;7.099999;;;;;;;-2.66;37.2832;95083.8;;;;
2022/03/13 04:58:08;;;;;;;12.45;7.450001;;;;;;;-2.78;37.47168;95085.5;;;;
2022/03/13 04:59:08;;;;;;;12.45;7.450001;;;;;;;-2.78;37.47168;95085.5;;;;
2022/03/13 05:00:09;;;;;;;12.45;7.450001;;;;;;;-2.78;37.47168;95085.5;;;;
2022/03/13 05:01:10;;;;;;;12.45;7.450001;;;;;;;-2.78;37.47168;95085.5;;;;
2022/03/13 05:02:11;;;;;;;12.45;7.450001;;;;;;;-2.78;37.47168;95085.5;;;;
2022/03/13 05:03:11;;;;;;;12.45;7.450001;;;;;;;-2.78;37.47168;95085.5;;;;
2022/03/13 05:04:12;;;;;;;12.45;7.450001;;;;;;;-2.78;37.47168;95085.5;;;;
2022/03/13 05:05:13;;;;;;;12.45;7.450001;;;;;;;-2.78;37.47168;95085.5;;;;
2022/03/13 05:06:14;;;;;;;12.45;7.450001;;;;;;;-2.78;37.47168;95085.5;;;;
2022/03/13 05:07:16;;;;;;;12.45;7.450001;;;;;;;-2.78;37.47168;95085.5;;;;
2022/03/13 05:08:16;;;;;;;12.45;7.450001;;;;;;;-2.78;37.47168;95085.5;;;;
2022/03/13 05:09:17;;;;;;;11.6;7.1;;;;;;;-2.9;37.66016;95086.38;;;;
2022/03/13 05:10:18;;;;;;;11.6;7.1;;;;;;;-2.9;37.66016;95086.38;;;;
2022/03/13 05:11:19;;;;;;;11.6;7.1;;;;;;;-2.9;37.66016;95086.38;;;;
2022/03/13 05:12:21;;;;;;;11.6;7.1;;;;;;;-2.9;37.66016;95086.38;;;;
2022/03/13 05:13:24;;;;;;;11.6;7.1;;;;;;;-2.9;37.66016;95086.38;;;;
2022/03/13 05:14:25;;;;;;;11.6;7.1;;;;;;;-2.9;37.66016;95086.38;;;;
2022/03/13 05:15:26;;;;;;;11.6;7.1;;;;;;;-2.9;37.66016;95086.38;;;;
2022/03/13 05:16:26;;;;;;;11.6;7.1;;;;;;;-2.9;37.66016;95086.38;;;;
2022/03/13 05:17:27;;;;;;;11.6;7.1;;;;;;;-2.9;37.66016;95086.38;;;;
2022/03/13 05:18:29;;;;;;;11.6;7.1;;;;;;;-2.9;37.66016;95086.38;;;;
2022/03/13 05:19:29;;;;;;;10.85;6.700001;;;;;;;-2.92;37.79492;95099.33;;;;
2022/03/13 05:20:31;;;;;;;10.85;6.700001;;;;;;;-2.92;37.79492;95099.33;;;;
2022/03/13 05:21:31;;;;;;;10.85;6.700001;;;;;;;-2.92;37.79492;95099.33;;;;
2022/03/13 05:22:32;;;;;;;10.85;6.700001;;;;;;;-2.92;37.79492;95099.33;;;;
2022/03/13 05:23:32;;;;;;;10.85;6.700001;;;;;;;-2.92;37.79492;95099.33;;;;
2022/03/13 05:24:33;;;;;;;10.85;6.700001;;;;;;;-2.92;37.79492;95099.33;;;;
2022/03/13 05:25:34;;;;;;;10.85;6.700001;;;;;;;-2.92;37.79492;95099.33;;;;
2022/03/13 05:26:35;;;;;;;10.85;6.700001;;;;;;;-2.92;37.79492;95099.33;;;;
2022/03/13 05:27:36;;;;;;;10.85;6.700001;;;;;;;-2.92;37.79492;95099.33;;;;
2022/03/13 05:28:36;;;;;;;10.85;6.700001;;;;;;;-2.92;37.79492;95099.33;;;;
2022/03/13 05:29:37;;;;;;;10.85;6.700001;;;;;;;-2.92;37.79492;95099.33;;;;
2022/03/13 05:30:37;;;;;;;11.85;7.15;;;;;;;-2.91;37.87891;95116.39;;;;
2022/03/13 05:31:40;;;;;;;11.85;7.15;;;;;;;-2.91;37.87891;95116.39;;;;
2022/03/13 05:32:41;;;;;;;11.85;7.15;;;;;;;-2.91;37.87891;95116.39;;;;
2022/03/13 05:33:42;;;;;;;11.85;7.15;;;;;;;-2.91;37.87891;95116.39;;;;
2022/03/13 05:34:43;;;;;;;11.85;7.15;;;;;;;-2.91;37.87891;95116.39;;;;
2022/03/13 05:35:43;;;;;;;11.85;7.15;;;;;;;-2.91;37.87891;95116.39;;;;
2022/03/13 05:36:46;;;;;;;11.85;7.15;;;;;;;-2.91;37.87891;95116.39;;;;
2022/03/13 05:37:46;;;;;;;11.85;7.15;;;;;;;-2.91;37.87891;95116.39;;;;